createdAt,value
2019-06-08T00:00:44.012Z,570.5
2019-06-08T00:01:46.170Z,570.7
2019-06-08T00:02:48.594Z,570.9
2019-06-08T00:03:50.461Z,571.3
2019-06-08T00:04:52.887Z,571.7
2019-06-08T00:05:55.323Z,571.8
2019-06-08T00:06:57.491Z,571.4
2019-06-08T00:07:59.634Z,571.3
2019-06-08T00:09:01.796Z,571.7
2019-06-08T00:10:03.958Z,571.3
2019-06-08T00:11:06.124Z,571.2
2019-06-08T00:12:08.502Z,571.7
2019-06-08T00:13:10.815Z,571.4
2019-06-08T00:14:17.351Z,571.6
2019-06-08T00:15:24.330Z,571.7
2019-06-08T00:16:26.863Z,571.3
2019-06-08T00:18:34.272Z,570.9
2019-06-08T00:19:36.704Z,571
2019-06-08T00:20:39.142Z,570.9
2019-06-08T00:21:41.307Z,570.9
2019-06-08T00:22:43.741Z,570.8
2019-06-08T00:23:45.883Z,570.7
2019-06-08T00:24:48.031Z,570.7
2019-06-08T00:25:50.463Z,571.1
2019-06-08T00:26:52.627Z,570.8
2019-06-08T00:27:55.047Z,570.7
2019-06-08T00:28:57.210Z,570.2
2019-06-08T00:29:59.642Z,570.2
2019-06-08T00:31:02.073Z,570.4
2019-06-08T00:32:04.499Z,570.3
2019-06-08T00:33:06.934Z,570.5
2019-06-08T00:34:09.120Z,570.4
2019-06-08T00:35:10.988Z,569.8
2019-06-08T00:36:14.706Z,570
2019-06-08T00:37:21.253Z,569.7
2019-06-08T00:38:26.133Z,569
2019-06-08T00:39:28.567Z,569.1
2019-06-08T00:40:30.983Z,569
2019-06-08T00:41:33.413Z,568.8
2019-06-08T00:42:35.581Z,568.5
2019-06-08T00:43:38.015Z,568.3
2019-06-08T00:44:40.444Z,567.7
2019-06-08T00:45:42.875Z,567.7
2019-06-08T00:46:45.294Z,567.1
2019-06-08T00:48:52.703Z,567.5
2019-06-08T00:49:54.324Z,567.5
2019-06-08T00:50:56.754Z,567.1
2019-06-08T00:51:59.197Z,567.1
2019-06-08T00:53:01.628Z,567.2
2019-06-08T00:54:03.793Z,566.8
2019-06-08T00:55:06.227Z,566.8
2019-06-08T00:56:08.648Z,567
2019-06-08T00:57:10.809Z,566.5
2019-06-08T00:58:13.283Z,566.5
2019-06-08T00:59:15.715Z,566.2
2019-06-08T01:00:22.366Z,565.5
2019-06-08T01:02:30.573Z,565.6
2019-06-08T01:03:32.985Z,565.2
2019-06-08T01:04:35.418Z,565.7
2019-06-08T01:05:37.565Z,565.2
2019-06-08T01:06:39.729Z,564.9
2019-06-08T01:07:42.151Z,565
2019-06-08T01:08:44.591Z,564.8
2019-06-08T01:09:47.015Z,564.8
2019-06-08T01:10:49.464Z,564.3
2019-06-08T01:11:51.645Z,564.4
2019-06-08T01:12:53.799Z,564.2
2019-06-08T01:13:55.956Z,564.3
2019-06-08T01:14:58.385Z,564.1
2019-06-08T01:16:00.263Z,563.7
2019-06-08T01:17:02.752Z,563.6
2019-06-08T01:18:06.304Z,563.4
2019-06-08T01:19:08.459Z,563.4
2019-06-08T01:20:10.619Z,563.5
2019-06-08T01:21:12.759Z,563.7
2019-06-08T01:22:15.177Z,563.2
2019-06-08T01:23:17.339Z,563.2
2019-06-08T01:24:22.051Z,563.4
2019-06-08T01:25:27.878Z,562.9
2019-06-08T01:26:31.663Z,562.3
2019-06-08T01:27:33.815Z,561.9
2019-06-08T01:28:36.252Z,562.1
2019-06-08T01:29:38.667Z,561.4
2019-06-08T01:30:41.101Z,561.5
2019-06-08T01:31:43.275Z,561.4
2019-06-08T01:32:45.429Z,561.9
2019-06-08T01:33:48.463Z,562
2019-06-08T01:34:50.408Z,561.8
2019-06-08T01:35:53.163Z,561.6
2019-06-08T01:36:55.601Z,561.7
2019-06-08T01:37:58.040Z,561.5
2019-06-08T01:39:00.193Z,561.6
2019-06-08T01:40:02.070Z,561.6
2019-06-08T01:41:04.252Z,561.3
2019-06-08T01:42:06.679Z,561.1
2019-06-08T01:43:09.109Z,561.5
2019-06-08T01:44:11.556Z,561.5
2019-06-08T01:45:13.987Z,561.8
2019-06-08T01:46:16.422Z,562.3
2019-06-08T01:47:18.855Z,562.1
2019-06-08T01:48:26.158Z,561.9
2019-06-08T01:49:32.478Z,561.8
2019-06-08T01:50:35.223Z,561.8
2019-06-08T01:51:37.383Z,562.3
2019-06-08T01:52:39.560Z,562.4
2019-06-08T01:53:41.709Z,562
2019-06-08T01:54:44.151Z,561.7
2019-06-08T01:55:46.321Z,561.7
2019-06-08T01:56:48.743Z,561.8
2019-06-08T01:57:51.199Z,561.7
2019-06-08T01:58:53.344Z,561.2
2019-06-08T01:59:55.779Z,561.1
2019-06-08T02:00:58.203Z,560.8
2019-06-08T02:02:00.333Z,561
2019-06-08T02:03:02.491Z,560.8
2019-06-08T02:04:04.641Z,560.6
2019-06-08T02:05:06.524Z,560.5
2019-06-08T02:06:08.393Z,560.4
2019-06-08T02:07:10.256Z,559.9
2019-06-08T02:08:12.683Z,559.7
2019-06-08T02:09:15.121Z,559.4
2019-06-08T02:10:17.554Z,559.4
2019-06-08T02:11:20.162Z,559.2
2019-06-08T02:12:22.324Z,559.3
2019-06-08T02:13:27.331Z,559.1
2019-06-08T02:14:35.305Z,558.6
2019-06-08T02:15:37.255Z,558.7
2019-06-08T02:16:39.705Z,558.7
2019-06-08T02:17:41.846Z,558.2
2019-06-08T02:19:49.261Z,558.6
2019-06-08T02:20:51.693Z,558.3
2019-06-08T02:21:54.119Z,558.6
2019-06-08T02:22:56.551Z,558.4
2019-06-08T02:23:58.981Z,558.1
2019-06-08T02:25:01.403Z,557.9
2019-06-08T02:26:03.545Z,557.8
2019-06-08T02:27:05.419Z,558
2019-06-08T02:28:07.303Z,558.1
2019-06-08T02:29:09.761Z,557.1
2019-06-08T02:30:12.178Z,557.3
2019-06-08T02:31:14.604Z,557.7
2019-06-08T02:32:16.774Z,557.5
2019-06-08T02:33:19.189Z,557.4
2019-06-08T02:34:21.613Z,557.5
2019-06-08T02:35:24.046Z,557.3
2019-06-08T02:36:26.236Z,557.4
2019-06-08T02:37:37.688Z,557.5
2019-06-08T02:38:42.814Z,557.1
2019-06-08T02:39:44.971Z,556.9
2019-06-08T02:40:47.133Z,557.2
2019-06-08T02:41:49.570Z,557.2
2019-06-08T02:42:51.722Z,557.2
2019-06-08T02:43:53.869Z,556.8
2019-06-08T02:44:56.009Z,557.2
2019-06-08T02:45:58.205Z,556.5
2019-06-08T02:47:00.104Z,556.4
2019-06-08T02:48:02.526Z,556.5
2019-06-08T02:49:06.550Z,556
2019-06-08T02:50:08.977Z,555.9
2019-06-08T02:51:11.412Z,555.9
2019-06-08T02:52:13.843Z,555.9
2019-06-08T02:53:16.001Z,555.9
2019-06-08T02:54:18.472Z,555.4
2019-06-08T02:55:20.899Z,555.5
2019-06-08T02:56:23.332Z,555.5
2019-06-08T02:57:25.283Z,555.5
2019-06-08T02:58:31.035Z,555.2
2019-06-08T02:59:40.534Z,555.7
2019-06-08T03:00:44.831Z,555.6
2019-06-08T03:01:46.180Z,555.4
2019-06-08T03:02:48.334Z,555.2
2019-06-08T03:03:50.779Z,554.9
2019-06-08T03:04:53.223Z,555
2019-06-08T03:05:55.657Z,554.8
2019-06-08T03:06:58.089Z,554.8
2019-06-08T03:07:59.995Z,554.4
2019-06-08T03:09:02.159Z,554
2019-06-08T03:10:04.317Z,553.8
2019-06-08T03:11:06.183Z,553.9
2019-06-08T03:12:08.945Z,553.9
2019-06-08T03:13:10.826Z,554
2019-06-08T03:14:12.986Z,553.3
2019-06-08T03:15:15.138Z,553.4
2019-06-08T03:16:17.296Z,552.6
2019-06-08T03:17:19.471Z,552.9
2019-06-08T03:18:21.912Z,553.2
2019-06-08T03:19:25.746Z,553
2019-06-08T03:20:28.188Z,552.9
2019-06-08T03:21:33.773Z,552.8
2019-06-08T03:23:45.145Z,552.9
2019-06-08T03:24:47.302Z,552.8
2019-06-08T03:26:54.163Z,552.4
2019-06-08T03:27:56.311Z,552.3
2019-06-08T03:28:58.475Z,551.9
2019-06-08T03:30:00.375Z,551.4
2019-06-08T03:31:02.813Z,551.6
2019-06-08T03:32:05.305Z,551.3
2019-06-08T03:33:07.518Z,551.7
2019-06-08T03:34:09.961Z,551.8
2019-06-08T03:35:12.403Z,551.8
2019-06-08T03:36:14.754Z,551.8
2019-06-08T03:37:16.878Z,551.9
2019-06-08T03:38:18.747Z,551.8
2019-06-08T03:39:20.718Z,551.5
2019-06-08T03:40:23.148Z,551.3
2019-06-08T03:41:25.296Z,551.2
2019-06-08T03:42:27.734Z,550.9
2019-06-08T03:43:30.153Z,550.8
2019-06-08T03:44:32.044Z,550.9
2019-06-08T03:45:42.818Z,550.7
2019-06-08T03:47:50.451Z,550.4
2019-06-08T03:48:52.886Z,549.9
2019-06-08T03:51:00.042Z,549.6
2019-06-08T03:52:02.466Z,549.5
2019-06-08T03:53:04.606Z,549.8
2019-06-08T03:54:06.472Z,549.2
2019-06-08T03:55:08.627Z,549.6
2019-06-08T03:56:10.523Z,549.4
2019-06-08T03:57:12.936Z,549.1
2019-06-08T03:58:15.490Z,549.4
2019-06-08T03:59:17.639Z,549.2
2019-06-08T04:00:19.514Z,549
2019-06-08T04:01:21.967Z,548.6
2019-06-08T04:02:24.394Z,548.5
2019-06-08T04:03:26.558Z,548.2
2019-06-08T04:04:28.447Z,547.7
2019-06-08T04:05:30.873Z,547.9
2019-06-08T04:06:33.313Z,547.8
2019-06-08T04:07:35.199Z,548
2019-06-08T04:09:47.080Z,547.7
2019-06-08T04:10:51.187Z,548.2
2019-06-08T04:11:53.320Z,547.3
2019-06-08T04:12:55.477Z,547.4
2019-06-08T04:13:57.636Z,546.7
2019-06-08T04:14:59.807Z,546.7
2019-06-08T04:16:02.247Z,547.1
2019-06-08T04:17:04.168Z,547
2019-06-08T04:18:06.327Z,547.1
2019-06-08T04:19:08.751Z,547.4
2019-06-08T04:21:15.361Z,546.5
2019-06-08T04:22:17.790Z,546.7
2019-06-08T04:23:20.217Z,546.5
2019-06-08T04:24:22.377Z,546.6
2019-06-08T04:25:24.545Z,546.1
2019-06-08T04:26:26.957Z,546.2
2019-06-08T04:27:29.095Z,545.9
2019-06-08T04:28:31.240Z,546.2
2019-06-08T04:29:33.662Z,546.2
2019-06-08T04:30:36.098Z,546.3
2019-06-08T04:31:46.004Z,546.1
2019-06-08T04:32:51.225Z,546
2019-06-08T04:33:53.372Z,545.7
2019-06-08T04:34:55.802Z,545.2
2019-06-08T04:35:58.233Z,545.3
2019-06-08T04:37:01.220Z,545.7
2019-06-08T04:38:03.105Z,545.4
2019-06-08T04:39:05.004Z,545.4
2019-06-08T04:40:07.419Z,545.2
2019-06-08T04:41:09.577Z,545.3
2019-06-08T04:42:12.006Z,545.3
2019-06-08T04:43:14.176Z,545.3
2019-06-08T04:44:16.632Z,545.3
2019-06-08T04:45:18.805Z,544.8
2019-06-08T04:46:20.958Z,544.5
2019-06-08T04:47:23.113Z,544.5
2019-06-08T04:48:25.258Z,544.2
2019-06-08T04:49:27.403Z,544.3
2019-06-08T04:50:29.817Z,544
2019-06-08T04:51:31.973Z,543.9
2019-06-08T04:52:34.404Z,543.8
2019-06-08T04:53:36.539Z,543.8
2019-06-08T04:54:47.418Z,543.7
2019-06-08T04:55:51.049Z,543.1
2019-06-08T04:56:53.502Z,543
2019-06-08T04:57:55.923Z,542.8
2019-06-08T04:58:58.074Z,542.2
2019-06-08T05:00:00.223Z,542.3
2019-06-08T05:01:02.106Z,542
2019-06-08T05:02:04.239Z,541.7
2019-06-08T05:03:06.403Z,541.8
2019-06-08T05:04:08.827Z,541.4
2019-06-08T05:05:11.282Z,541.4
2019-06-08T05:06:13.704Z,541.8
2019-06-08T05:07:15.875Z,541.4
2019-06-08T05:08:18.056Z,541.5
2019-06-08T05:09:20.235Z,541.3
2019-06-08T05:10:22.690Z,540.8
2019-06-08T05:11:24.828Z,540.8
2019-06-08T05:12:26.706Z,541
2019-06-08T05:13:28.835Z,540.8
2019-06-08T05:14:31.272Z,541
2019-06-08T05:15:33.134Z,540.8
2019-06-08T05:16:35.046Z,540.9
2019-06-08T05:17:39.128Z,540.4
2019-06-08T05:18:47.228Z,540.4
2019-06-08T05:20:54.957Z,540.3
2019-06-08T05:21:57.399Z,539.8
2019-06-08T05:22:59.826Z,540
2019-06-08T05:24:02.254Z,540.2
2019-06-08T05:25:04.704Z,539.9
2019-06-08T05:26:06.831Z,540
2019-06-08T05:27:09.271Z,539.4
2019-06-08T05:28:11.719Z,539.3
2019-06-08T05:29:13.860Z,539.5
2019-06-08T05:30:16.289Z,539.5
2019-06-08T05:31:18.718Z,539.7
2019-06-08T05:32:21.158Z,539.1
2019-06-08T05:33:23.640Z,539.3
2019-06-08T05:34:26.094Z,539
2019-06-08T05:35:28.518Z,538.8
2019-06-08T05:36:30.676Z,538.9
2019-06-08T05:37:33.304Z,538.8
2019-06-08T05:38:35.746Z,538.5
2019-06-08T05:39:39.426Z,538.6
2019-06-08T05:40:44.075Z,538.2
2019-06-08T05:41:48.095Z,538.1
2019-06-08T05:42:51.579Z,537.5
2019-06-08T05:43:54.021Z,537.6
2019-06-08T05:44:56.453Z,537.7
2019-06-08T05:45:58.337Z,537.4
2019-06-08T05:47:00.211Z,537.3
2019-06-08T05:48:01.814Z,537.2
2019-06-08T05:49:03.690Z,536.8
2019-06-08T05:50:06.123Z,536.8
2019-06-08T05:51:08.271Z,536.4
2019-06-08T05:52:10.141Z,536.8
2019-06-08T05:53:12.563Z,536.8
2019-06-08T05:54:14.708Z,536.9
2019-06-08T05:55:16.877Z,536.5
2019-06-08T05:56:19.301Z,536.7
2019-06-08T05:57:21.190Z,536
2019-06-08T05:58:23.345Z,535.5
2019-06-08T05:59:25.774Z,535.3
2019-06-08T06:00:27.922Z,535.3
2019-06-08T06:01:29.778Z,534.9
2019-06-08T06:02:31.927Z,534.9
2019-06-08T06:03:34.071Z,535.1
2019-06-08T06:04:36.581Z,535.1
2019-06-08T06:05:40.178Z,535.1
2019-06-08T06:06:45.037Z,535
2019-06-08T06:07:51.105Z,535.1
2019-06-08T06:08:53.378Z,534.5
2019-06-08T06:09:55.589Z,534.7
2019-06-08T06:10:57.749Z,534.5
2019-06-08T06:11:59.655Z,534.3
2019-06-08T06:13:01.523Z,534.4
2019-06-08T06:14:03.689Z,534.2
2019-06-08T06:15:05.834Z,534.1
2019-06-08T06:16:07.977Z,534.2
2019-06-08T06:17:10.418Z,533.6
2019-06-08T06:18:12.862Z,533.4
2019-06-08T06:19:15.282Z,533.4
2019-06-08T06:20:17.735Z,533.3
2019-06-08T06:21:19.884Z,533
2019-06-08T06:22:22.303Z,532.9
2019-06-08T06:23:24.725Z,532.9
2019-06-08T06:24:26.865Z,532.3
2019-06-08T06:25:29.301Z,532.4
2019-06-08T06:26:31.478Z,533
2019-06-08T06:27:33.376Z,532.8
2019-06-08T06:28:35.808Z,532.5
2019-06-08T06:29:38.231Z,532.9
2019-06-08T06:30:41.734Z,532.7
2019-06-08T06:31:47.713Z,532.3
2019-06-08T06:32:52.863Z,532.4
2019-06-08T06:33:55.294Z,532
2019-06-08T06:34:57.466Z,532.4
2019-06-08T06:35:59.633Z,531.9
2019-06-08T06:37:01.808Z,532.1
2019-06-08T06:38:04.089Z,532.1
2019-06-08T06:39:06.513Z,532.3
2019-06-08T06:40:08.694Z,532.4
2019-06-08T06:41:11.132Z,532.8
2019-06-08T06:42:13.309Z,532.6
2019-06-08T06:43:15.184Z,532.3
2019-06-08T06:44:17.608Z,532.4
2019-06-08T06:45:19.497Z,532
2019-06-08T06:46:21.933Z,531.9
2019-06-08T06:47:24.090Z,531.6
2019-06-08T06:48:26.298Z,531.4
2019-06-08T06:49:28.726Z,531.1
2019-06-08T06:50:30.878Z,531.3
2019-06-08T06:52:37.738Z,531
2019-06-08T06:53:40.107Z,530.7
2019-06-08T06:54:44.402Z,530.6
2019-06-08T06:55:49.262Z,529.8
2019-06-08T06:56:54.969Z,529.6
2019-06-08T06:57:57.116Z,529.7
2019-06-08T06:58:59.551Z,529.9
2019-06-08T07:00:03.074Z,529.5
2019-06-08T07:01:05.235Z,529.4
2019-06-08T07:02:07.722Z,529.2
2019-06-08T07:03:10.175Z,529.1
2019-06-08T07:04:12.330Z,529.2
2019-06-08T07:05:13.928Z,529.3
2019-06-08T07:06:16.091Z,529.1
2019-06-08T07:07:18.524Z,529.2
2019-06-08T07:08:20.684Z,529
2019-06-08T07:09:23.426Z,529
2019-06-08T07:10:25.575Z,529.3
2019-06-08T07:11:28.020Z,529
2019-06-08T07:12:30.459Z,529.2
2019-06-08T07:13:32.894Z,528.6
2019-06-08T07:14:35.052Z,528.7
2019-06-08T07:16:42.485Z,528.7
2019-06-08T07:17:47.918Z,528.3
2019-06-08T07:18:54.352Z,528.7
2019-06-08T07:19:56.954Z,528.4
2019-06-08T07:21:00.036Z,528.5
2019-06-08T07:22:02.466Z,528.7
2019-06-08T07:23:04.918Z,528.9
2019-06-08T07:24:07.065Z,528.8
2019-06-08T07:25:09.224Z,529
2019-06-08T07:26:11.755Z,528.5
2019-06-08T07:27:13.919Z,528.5
2019-06-08T07:28:16.079Z,528.4
2019-06-08T07:29:17.968Z,528.4
2019-06-08T07:30:19.907Z,528
2019-06-08T07:31:22.349Z,528
2019-06-08T07:32:24.788Z,528.1
2019-06-08T07:33:26.926Z,527.7
2019-06-08T07:34:29.094Z,527.7
2019-06-08T07:35:31.534Z,527.8
2019-06-08T07:36:33.962Z,527.5
2019-06-08T07:37:36.408Z,527.4
2019-06-08T07:38:38.572Z,527.2
2019-06-08T07:39:41.022Z,527.3
2019-06-08T07:40:43.467Z,527.6
2019-06-08T07:41:45.632Z,527.6
2019-06-08T07:43:56.408Z,527.5
2019-06-08T07:45:00.875Z,527.6
2019-06-08T07:46:03.008Z,527.2
2019-06-08T07:47:05.175Z,527.5
2019-06-08T07:48:07.609Z,527.6
2019-06-08T07:49:09.520Z,527.7
2019-06-08T07:50:11.948Z,527.9
2019-06-08T07:51:14.095Z,527.9
2019-06-08T07:52:16.880Z,527.6
2019-06-08T07:53:19.287Z,527.3
2019-06-08T07:54:21.164Z,527.9
2019-06-08T07:55:23.490Z,527.7
2019-06-08T07:56:26.026Z,527.8
2019-06-08T07:57:28.509Z,527.6
2019-06-08T07:58:30.969Z,527.6
2019-06-08T07:59:33.586Z,527.8
2019-06-08T08:00:36.014Z,527.9
2019-06-08T08:01:38.177Z,527.9
2019-06-08T08:02:40.613Z,528.1
2019-06-08T08:03:43.248Z,527.5
2019-06-08T08:04:45.862Z,527.4
2019-06-08T08:05:53.138Z,527.7
2019-06-08T08:06:59.258Z,527.2
2019-06-08T08:08:01.435Z,527.3
2019-06-08T08:09:03.563Z,527.2
2019-06-08T08:10:06.358Z,527.2
2019-06-08T08:11:08.838Z,527.2
2019-06-08T08:13:16.265Z,527
2019-06-08T08:14:18.133Z,526.9
2019-06-08T08:15:20.772Z,527
2019-06-08T08:16:22.384Z,527.1
2019-06-08T08:17:24.537Z,526.9
2019-06-08T08:18:26.414Z,526.6
2019-06-08T08:19:28.846Z,526.8
2019-06-08T08:20:31.052Z,526.7
2019-06-08T08:21:33.199Z,526.8
2019-06-08T08:22:37.999Z,526.8
2019-06-08T08:23:43.121Z,527.1
2019-06-08T08:24:48.154Z,527.2
2019-06-08T08:25:55.698Z,526.7
2019-06-08T08:28:03.454Z,526.4
2019-06-08T08:29:08.331Z,526.3
2019-06-08T08:30:12.705Z,525.8
2019-06-08T08:32:22.814Z,526
2019-06-08T08:33:27.551Z,526
2019-06-08T08:34:32.563Z,525.8
2019-06-08T08:35:34.934Z,525.6
2019-06-08T08:37:41.783Z,524.8
2019-06-08T08:38:44.216Z,525.2
2019-06-08T08:39:51.749Z,525.3
2019-06-08T08:43:08.936Z,525.1
2019-06-08T08:44:14.518Z,525.1
2019-06-08T08:46:22.417Z,524.3
2019-06-08T08:47:24.851Z,524.8
2019-06-08T08:49:31.986Z,524.3
2019-06-08T08:50:34.413Z,524.8
2019-06-08T08:52:43.014Z,524.7
2019-06-08T08:53:45.162Z,524.8
2019-06-08T08:54:52.330Z,524.7
2019-06-08T08:59:12.439Z,524.6
2019-06-08T09:00:14.605Z,524.2
2019-06-08T09:02:22.792Z,524.6
2019-06-08T09:04:29.952Z,524.3
2019-06-08T09:05:33.012Z,524.5
2019-06-08T09:06:37.936Z,524.3
2019-06-08T09:07:42.379Z,524.8
2019-06-08T09:08:44.827Z,524.2
2019-06-08T09:16:23.215Z,524.3
2019-06-08T09:17:27.866Z,524.3
2019-06-08T09:18:32.292Z,524.4
2019-06-08T09:19:33.909Z,524.8
2019-06-08T09:21:42.043Z,524.4
2019-06-08T09:23:53.801Z,524.4
2019-06-08T09:28:12.934Z,523.9
2019-06-08T09:29:15.127Z,524
2019-06-08T09:31:22.269Z,523.6
2019-06-08T09:32:24.703Z,523.2
2019-06-08T09:34:33.048Z,522.8
2019-06-08T09:36:42.774Z,522.4
2019-06-08T09:37:45.212Z,522.2
2019-06-08T09:38:53.079Z,522.7
2019-06-08T09:42:10.598Z,522
2019-06-08T09:43:18.680Z,522.2
2019-06-08T09:44:24.263Z,522.1
2019-06-08T09:46:32.846Z,522.3
2019-06-08T09:47:37.936Z,522.9
2019-06-08T09:48:42.250Z,522.6
2019-06-08T09:49:44.155Z,522.9
2019-06-08T09:56:13.462Z,522.1
2019-06-08T09:57:15.284Z,522.3
2019-06-08T09:59:22.725Z,522.4
2019-06-08T10:01:30.902Z,522.7
2019-06-08T10:02:33.532Z,522.5
2019-06-08T10:03:38.934Z,522.9
2019-06-08T10:04:42.895Z,523.2
2019-06-08T10:05:44.777Z,522.7
2019-06-08T10:07:52.508Z,522.6
2019-06-08T10:09:00.611Z,522.7
2019-06-08T10:12:13.125Z,522.6
2019-06-08T10:13:15.339Z,522.4
2019-06-08T10:15:22.486Z,522.5
2019-06-08T10:16:27.894Z,522.4
2019-06-08T10:17:31.905Z,522.4
2019-06-08T10:18:34.328Z,522.5
2019-06-08T10:19:36.473Z,522.8
2019-06-08T10:20:40.114Z,522.5
2019-06-08T10:23:52.278Z,522.6
2019-06-08T10:26:07.605Z,523.1
2019-06-08T10:29:20.536Z,522.9
2019-06-08T10:30:22.725Z,523.4
2019-06-08T10:32:30.341Z,523.4
2019-06-08T10:33:32.536Z,522.8
2019-06-08T10:34:34.705Z,523.1
2019-06-08T10:36:42.609Z,522.9
2019-06-08T10:37:44.777Z,522.9
2019-06-08T10:39:51.635Z,523.1
2019-06-08T10:40:53.778Z,522.5
2019-06-08T10:46:22.797Z,523.2
2019-06-08T10:47:29.351Z,523
2019-06-08T10:48:31.810Z,522.8
2019-06-08T10:49:33.959Z,522.6
2019-06-08T10:50:36.385Z,522.6
2019-06-08T10:52:43.532Z,522.6
2019-06-08T10:54:50.965Z,522.8
2019-06-08T10:55:53.415Z,522
2019-06-08T10:56:57.394Z,522.7
2019-06-08T10:58:09.515Z,521.8
2019-06-08T10:59:15.059Z,522.3
2019-06-08T11:01:22.503Z,522.2
2019-06-08T11:02:24.662Z,522.6
2019-06-08T11:04:32.485Z,522.9
2019-06-08T11:05:34.671Z,523
2019-06-08T11:07:42.291Z,522.9
2019-06-08T11:08:44.721Z,522.6
2019-06-08T11:10:53.213Z,523
2019-06-08T11:15:13.842Z,522.9
2019-06-08T11:17:21.222Z,523.8
2019-06-08T11:18:23.683Z,523.6
2019-06-08T11:19:28.464Z,524
2019-06-08T11:20:32.405Z,523.9
2019-06-08T11:21:34.838Z,524
2019-06-08T11:22:37.008Z,524
2019-06-08T11:25:52.930Z,524.3
2019-06-08T11:26:57.603Z,524.1
2019-06-08T11:31:21.823Z,524
2019-06-08T11:32:24.256Z,524.2
2019-06-08T11:34:32.856Z,524.5
2019-06-08T11:35:35.038Z,524.2
2019-06-08T11:37:43.141Z,524.8
2019-06-08T11:38:47.660Z,525.1
2019-06-08T11:39:52.206Z,524.6
2019-06-08T11:40:54.577Z,524.7
2019-06-08T11:43:08.499Z,524.9
2019-06-08T11:46:24.305Z,525.7
2019-06-08T11:48:32.212Z,525.3
2019-06-08T11:49:34.628Z,525.4
2019-06-08T11:51:43.004Z,525.9
2019-06-08T11:52:45.669Z,526.1
2019-06-08T11:54:52.799Z,526.3
2019-06-08T11:55:55.235Z,526.6
2019-06-08T11:57:00.676Z,526.5
2019-06-08T11:58:05.500Z,526.2
2019-06-08T12:01:20.534Z,526.4
2019-06-08T12:02:22.966Z,526.3
2019-06-08T12:03:27.614Z,526.2
2019-06-08T12:04:32.297Z,526.3
2019-06-08T12:05:34.164Z,526
2019-06-08T12:07:41.786Z,526.4
2019-06-08T12:08:44.309Z,526.3
2019-06-08T12:10:52.646Z,526
2019-06-08T12:11:54.875Z,526
2019-06-08T12:12:58.837Z,526.4
2019-06-08T12:14:01.329Z,526.4
2019-06-08T12:18:22.395Z,526.3
2019-06-08T12:19:24.537Z,526.1
2019-06-08T12:21:32.432Z,526.9
2019-06-08T12:22:34.854Z,527.3
2019-06-08T12:23:37.293Z,527.5
2019-06-08T12:25:44.438Z,527.4
2019-06-08T12:34:23.534Z,527.1
2019-06-08T12:35:28.246Z,527.2
2019-06-08T12:36:32.460Z,527.5
2019-06-08T12:37:34.607Z,527.6
2019-06-08T12:39:42.503Z,527.3
2019-06-08T12:40:44.945Z,528.3
2019-06-08T12:42:52.342Z,528.1
2019-06-08T12:43:54.955Z,528.2
2019-06-08T12:46:02.558Z,528
2019-06-08T12:47:05.033Z,528.9
2019-06-08T12:50:22.064Z,528.9
2019-06-08T12:51:24.231Z,528.1
2019-06-08T12:53:32.125Z,528.8
2019-06-08T12:54:34.565Z,528.5
2019-06-08T12:56:41.970Z,528.7
2019-06-08T12:57:44.413Z,528.4
2019-06-08T12:59:51.748Z,528
2019-06-08T13:00:54.183Z,528.7
2019-06-08T13:03:03.025Z,528.7
2019-06-08T13:04:05.448Z,529
2019-06-08T13:07:20.964Z,529.4
2019-06-08T13:08:23.537Z,529.6
2019-06-08T13:10:32.412Z,529.3
2019-06-08T13:11:34.569Z,529.3
2019-06-08T13:13:43.451Z,528.7
2019-06-08T13:15:52.307Z,529
2019-06-08T13:16:54.924Z,529.2
2019-06-08T13:19:02.879Z,529.3
2019-06-08T13:20:07.526Z,529.5
2019-06-08T13:23:23.324Z,529.9
2019-06-08T13:24:25.779Z,529.9
2019-06-08T13:26:32.890Z,529.6
2019-06-08T13:27:35.308Z,529.4
2019-06-08T13:29:42.689Z,529.4
2019-06-08T13:30:44.844Z,529.2
2019-06-08T13:31:47.282Z,529.6
2019-06-08T13:32:50.276Z,529.3
2019-06-08T13:33:52.434Z,529
2019-06-08T13:34:55.078Z,528.9
2019-06-08T13:36:02.048Z,529.3
2019-06-08T13:37:04.191Z,528.8
2019-06-08T13:38:08.490Z,528.4
2019-06-08T13:42:32.295Z,528.7
2019-06-08T13:43:34.452Z,529.1
2019-06-08T13:45:42.051Z,529
2019-06-08T13:46:43.950Z,528.4
2019-06-08T13:48:52.533Z,529.6
2019-06-08T13:49:54.986Z,529.7
2019-06-08T13:52:03.090Z,528.9
2019-06-08T13:53:05.524Z,529.4
2019-06-08T13:57:26.957Z,529
2019-06-08T13:59:34.123Z,529.3
2019-06-08T14:01:42.732Z,529.8
2019-06-08T14:02:44.924Z,529.8
2019-06-08T14:04:52.074Z,530.3
2019-06-08T14:05:54.513Z,531.1
2019-06-08T14:08:02.408Z,529.9
2019-06-08T14:09:04.843Z,530.3
2019-06-08T14:10:07.014Z,530.3
2019-06-08T14:11:10.265Z,530.9
2019-06-08T14:12:12.813Z,531.1
2019-06-08T14:15:34.783Z,531.9
2019-06-08T14:17:42.909Z,531.4
2019-06-08T14:18:45.533Z,531.8
2019-06-08T14:21:57.406Z,531
2019-06-08T14:23:00.896Z,530.7
2019-06-08T14:24:03.335Z,530.3
2019-06-08T14:25:05.530Z,531
2019-06-08T14:26:09.936Z,531.2
2019-06-08T14:27:12.099Z,530.9
2019-06-08T14:28:14.840Z,531.2
2019-06-08T14:33:42.510Z,531.4
2019-06-08T14:34:44.947Z,531.8
2019-06-08T14:35:48.275Z,531.1
2019-06-08T14:36:51.904Z,531.9
2019-06-08T14:37:53.766Z,531.8
2019-06-08T14:39:00.878Z,531.6
2019-06-08T14:40:03.143Z,531.2
2019-06-08T14:42:12.136Z,531
2019-06-08T14:43:14.632Z,531.5
2019-06-08T14:45:23.322Z,531.4
2019-06-08T14:47:32.321Z,531.7
2019-06-08T14:49:42.719Z,531.9
2019-06-08T14:50:45.136Z,531.8
2019-06-08T14:51:49.967Z,531.8
2019-06-08T14:52:52.215Z,532.2
2019-06-08T14:53:54.841Z,532.1
2019-06-08T14:57:09.881Z,532.3
2019-06-08T14:58:12.318Z,532.3
2019-06-08T14:59:14.474Z,532.5
2019-06-08T15:02:32.623Z,532.7
2019-06-08T15:03:35.078Z,532.6
2019-06-08T15:04:41.604Z,533
2019-06-08T15:05:44.234Z,533.2
2019-06-08T15:07:52.822Z,533.2
2019-06-08T15:08:55.260Z,533.3
2019-06-08T15:11:02.703Z,533.2
2019-06-08T15:12:04.624Z,533.4
2019-06-08T15:14:12.055Z,534.1
2019-06-08T15:15:14.495Z,533.3
2019-06-08T15:17:25.788Z,533.4
2019-06-08T15:18:33.648Z,533.6
2019-06-08T15:19:35.515Z,533.8
2019-06-08T15:20:39.972Z,533.8
2019-06-08T15:21:42.411Z,534
2019-06-08T15:22:44.845Z,534.2
2019-06-08T15:23:49.491Z,533.9
2019-06-08T15:24:51.940Z,534.3
2019-06-08T15:25:54.570Z,534.8
2019-06-08T15:28:03.388Z,535
2019-06-08T15:29:07.962Z,534.8
2019-06-08T15:30:10.408Z,535.1
2019-06-08T15:31:12.862Z,535.1
2019-06-08T15:32:15.035Z,534.8
2019-06-08T15:34:28.251Z,534.9
2019-06-08T15:35:33.264Z,535
2019-06-08T15:36:38.015Z,535.2
2019-06-08T15:37:43.006Z,535.3
2019-06-08T15:38:47.816Z,535.5
2019-06-08T15:39:53.683Z,535.3
2019-06-08T15:40:57.584Z,535.5
2019-06-08T15:42:02.185Z,535.6
2019-06-08T15:43:04.611Z,535.5
2019-06-08T15:44:06.479Z,535.3
2019-06-08T15:45:10.122Z,535.1
2019-06-08T15:46:11.985Z,535.4
2019-06-08T15:47:14.596Z,535.4
2019-06-08T15:50:32.905Z,535.8
2019-06-08T15:52:40.030Z,535.7
2019-06-08T15:53:42.258Z,536
2019-06-08T15:54:44.409Z,535.8
2019-06-08T15:56:53.930Z,535.6
2019-06-08T15:57:58.014Z,535.6
2019-06-08T15:59:02.469Z,535.8
2019-06-08T16:00:09.427Z,535.8
2019-06-08T16:02:18.280Z,536.2
2019-06-08T16:03:20.557Z,536.3
2019-06-08T16:04:25.485Z,536.2
2019-06-08T16:05:31.664Z,536.6
2019-06-08T16:06:35.361Z,536.5
2019-06-08T16:07:38.017Z,536.8
2019-06-08T16:08:40.437Z,536.3
2019-06-08T16:09:42.861Z,536.7
2019-06-08T16:10:44.736Z,536.8
2019-06-08T16:11:47.152Z,536.7
2019-06-08T16:12:49.020Z,536.6
2019-06-08T16:13:51.659Z,536.6
2019-06-08T16:14:53.537Z,536.2
2019-06-08T16:15:55.414Z,536.5
2019-06-08T16:16:57.836Z,536.7
2019-06-08T16:18:00.260Z,536.4
2019-06-08T16:19:02.705Z,536.3
2019-06-08T16:20:04.870Z,535.6
2019-06-08T16:21:07.306Z,536.1
2019-06-08T16:22:09.471Z,536.2
2019-06-08T16:23:12.158Z,536.3
2019-06-08T16:24:14.585Z,536.1
2019-06-08T16:25:16.745Z,536.2
2019-06-08T16:26:19.185Z,535.9
2019-06-08T16:27:21.066Z,536.4
2019-06-08T16:28:23.211Z,536.1
2019-06-08T16:29:27.304Z,536.1
2019-06-08T16:30:33.096Z,536.1
2019-06-08T16:31:36.858Z,535.9
2019-06-08T16:32:40.693Z,535.8
2019-06-08T16:34:48.110Z,536.1
2019-06-08T16:35:50.531Z,536.2
2019-06-08T16:36:52.837Z,536.3
2019-06-08T16:37:55.253Z,535.6
2019-06-08T16:38:57.901Z,535.8